Time;durP1;ratioP1;P1;durP2;ratioP2;P2;SDS_P1;SDS_P2;PMS_P1;PMS_P2;Temp;Humidity;BMP_temperature;BMP_pressure;BME280_temperature;BME280_humidity;BME280_pressure;Samples;Min_cycle;Max_cycle;Signal;HPM_P1;HPM_P2
2021/03/03 00:01:02;;;;;;;17.17;12.35;;;4.30;99.90;;;;;;5110842;28;20061;-66
2021/03/03 00:03:28;;;;;;;14.98;11.60;;;4.30;99.90;;;;;;5111762;28;20062;-65
2021/03/03 00:05:53;;;;;;;10.77;9.30;;;4.40;99.90;;;;;;5111691;28;20073;-65
2021/03/03 00:08:19;;;;;;;15.85;12.80;;;4.30;99.90;;;;;;5112069;28;20036;-65
2021/03/03 00:10:45;;;;;;;13.63;12.00;;;4.30;99.90;;;;;;5112389;28;20058;-66
2021/03/03 00:13:11;;;;;;;15.50;12.55;;;4.30;99.90;;;;;;5112041;28;20118;-66
2021/03/03 00:15:37;;;;;;;15.75;13.18;;;4.30;99.90;;;;;;5106915;28;20050;-66
2021/03/03 00:18:03;;;;;;;17.83;12.15;;;4.30;99.90;;;;;;5111701;28;20039;-65
2021/03/03 00:20:28;;;;;;;18.33;15.00;;;4.30;99.90;;;;;;5110690;28;20036;-66
2021/03/03 00:22:54;;;;;;;19.80;15.07;;;4.10;99.40;;;;;;5111668;28;20050;-66
2021/03/03 00:25:21;;;;;;;30.73;19.45;;;4.00;99.90;;;;;;5093959;28;20379;-65
2021/03/03 00:27:46;;;;;;;31.30;21.85;;;4.00;99.90;;;;;;5112011;28;20031;-65
2021/03/03 00:30:13;;;;;;;29.45;19.88;;;3.90;99.90;;;;;;5108446;28;20038;-66
2021/03/03 00:32:39;;;;;;;32.30;21.05;;;4.00;99.90;;;;;;5110740;28;20040;-65
2021/03/03 00:35:06;;;;;;;28.33;18.80;;;4.10;99.90;;;;;;5108013;28;20038;-66
2021/03/03 00:37:31;;;;;;;20.65;14.85;;;4.10;99.90;;;;;;5110165;28;20124;-65
2021/03/03 00:39:57;;;;;;;17.13;12.80;;;4.10;99.90;;;;;;5110741;28;20078;-66
2021/03/03 00:42:23;;;;;;;15.88;12.70;;;4.10;99.90;;;;;;5111390;28;20394;-65
2021/03/03 00:44:48;;;;;;;22.10;15.40;;;4.10;99.90;;;;;;5111523;28;20042;-65
2021/03/03 00:47:14;;;;;;;16.77;13.95;;;4.10;99.90;;;;;;5109222;28;20036;-65
2021/03/03 00:49:40;;;;;;;15.45;13.15;;;4.10;99.90;;;;;;5109402;28;20039;-65
2021/03/03 00:52:05;;;;;;;21.70;13.75;;;4.10;99.90;;;;;;5111192;28;20063;-65
2021/03/03 00:54:31;;;;;;;19.63;14.38;;;4.10;99.90;;;;;;5110323;28;20032;-65
2021/03/03 00:56:57;;;;;;;15.50;12.75;;;4.00;99.90;;;;;;5106126;28;20035;-65
2021/03/03 00:59:22;;;;;;;19.63;15.50;;;3.90;99.90;;;;;;5110459;28;20530;-65
2021/03/03 01:01:48;;;;;;;17.20;15.05;;;4.00;99.90;;;;;;5110066;28;20035;-65
2021/03/03 01:04:14;;;;;;;16.05;12.75;;;3.90;99.90;;;;;;5110765;28;20121;-65
2021/03/03 01:06:39;;;;;;;11.10;7.85;;;3.80;99.90;;;;;;5110881;28;20478;-65
2021/03/03 01:09:05;;;;;;;20.20;15.60;;;3.80;99.90;;;;;;5111200;28;20035;-65
2021/03/03 01:11:32;;;;;;;15.00;13.18;;;3.80;99.90;;;;;;5110873;28;20043;-65
2021/03/03 01:13:57;;;;;;;15.15;13.50;;;3.80;99.90;;;;;;5109554;28;20034;-65
2021/03/03 01:16:23;;;;;;;19.85;15.48;;;3.80;99.90;;;;;;5109584;28;20047;-65
2021/03/03 01:18:49;;;;;;;13.85;11.30;;;3.70;99.90;;;;;;5106437;28;20032;-65
2021/03/03 01:21:14;;;;;;;11.77;9.48;;;3.70;99.90;;;;;;5107081;28;20115;-65
2021/03/03 01:23:40;;;;;;;12.00;9.63;;;3.70;99.90;;;;;;5110091;28;20055;-65
2021/03/03 01:26:06;;;;;;;13.50;10.50;;;3.70;99.90;;;;;;5107192;28;20062;-65
2021/03/03 01:28:32;;;;;;;13.68;10.80;;;3.70;99.90;;;;;;5105316;28;20493;-65
2021/03/03 01:30:58;;;;;;;17.77;13.18;;;3.70;99.90;;;;;;5102665;28;20516;-65
2021/03/03 01:33:28;;;;;;;16.30;13.25;;;3.70;99.90;;;;;;5103455;28;20161;-65
2021/03/03 01:35:54;;;;;;;15.32;10.90;;;3.70;99.90;;;;;;5099869;28;20035;-65
2021/03/03 01:38:20;;;;;;;14.73;11.32;;;3.70;99.90;;;;;;5104488;28;20036;-65
2021/03/03 01:40:46;;;;;;;12.93;10.65;;;3.80;99.90;;;;;;5102507;28;20034;-65
2021/03/03 01:43:13;;;;;;;13.15;10.05;;;3.70;99.90;;;;;;5104919;28;20382;-65
2021/03/03 01:45:39;;;;;;;13.68;11.10;;;3.70;99.90;;;;;;5106183;28;20081;-65
2021/03/03 01:48:05;;;;;;;13.73;12.32;;;3.70;99.90;;;;;;5104745;28;20040;-65
2021/03/03 01:50:31;;;;;;;11.73;10.00;;;3.70;99.90;;;;;;5101782;28;20063;-65
2021/03/03 01:52:57;;;;;;;8.05;7.25;;;3.60;99.90;;;;;;5098320;28;20087;-65
2021/03/03 01:55:24;;;;;;;17.92;12.25;;;3.60;99.90;;;;;;5103029;28;20151;-65
2021/03/03 01:57:51;;;;;;;14.38;12.48;;;3.60;99.90;;;;;;5104084;28;20482;-65
2021/03/03 02:00:17;;;;;;;18.98;12.27;;;3.60;99.90;;;;;;5102924;28;20032;-65
2021/03/03 02:02:43;;;;;;;19.17;12.38;;;3.60;99.50;;;;;;5106472;28;20045;-65
2021/03/03 02:05:09;;;;;;;7.78;6.30;;;3.50;99.60;;;;;;5099317;28;20035;-65
2021/03/03 02:08:17;;;;;;;12.68;9.15;;;3.50;99.90;;;;;;5102278;28;20050;-65
2021/03/03 02:11:01;;;;;;;15.30;8.88;;;3.50;99.90;;;;;;5075096;28;20044;-65
2021/03/03 02:13:51;;;;;;;17.00;14.45;;;3.40;99.90;;;;;;5102826;28;20402;-65
2021/03/03 02:16:18;;;;;;;15.02;11.73;;;3.40;99.90;;;;;;5106354;28;20039;-65
2021/03/03 02:18:45;;;;;;;19.00;13.55;;;3.50;99.90;;;;;;5107524;28;20480;-65
2021/03/03 02:21:28;;;;;;;14.48;12.45;;;3.50;99.90;;;;;;5100253;28;20429;-65
2021/03/03 02:24:16;;;;;;;13.25;11.15;;;3.40;99.90;;;;;;5102337;28;20051;-65
2021/03/03 02:26:43;;;;;;;14.35;10.70;;;3.50;99.90;;;;;;5102236;28;20055;-65
2021/03/03 02:29:12;;;;;;;13.35;10.73;;;3.50;99.90;;;;;;5106587;28;20055;-65
2021/03/03 02:31:41;;;;;;;16.58;12.70;;;3.50;99.90;;;;;;5108187;28;20056;-65
2021/03/03 02:34:08;;;;;;;16.27;12.25;;;3.40;99.90;;;;;;5110951;28;20096;-65
2021/03/03 02:36:37;;;;;;;17.83;12.50;;;3.30;99.90;;;;;;5105286;28;20048;-65
2021/03/03 02:39:05;;;;;;;15.02;11.70;;;3.40;99.90;;;;;;5108749;28;20039;-65
2021/03/03 02:41:33;;;;;;;20.67;13.43;;;3.40;99.90;;;;;;5103921;28;20635;-65
2021/03/03 02:44:01;;;;;;;18.10;13.35;;;3.40;99.90;;;;;;5109075;28;20040;-65
2021/03/03 02:46:28;;;;;;;20.08;15.15;;;3.40;99.90;;;;;;5111621;28;20031;-65
2021/03/03 02:48:54;;;;;;;20.05;15.30;;;3.30;99.90;;;;;;5110387;28;20035;-65
2021/03/03 02:51:20;;;;;;;23.83;16.27;;;3.30;99.90;;;;;;5113747;28;20439;-65
2021/03/03 02:53:46;;;;;;;24.15;16.30;;;3.30;99.90;;;;;;5110319;28;20447;-65
2021/03/03 02:56:11;;;;;;;17.77;13.80;;;3.30;99.90;;;;;;5110881;28;20051;-65
2021/03/03 02:58:37;;;;;;;19.27;15.25;;;3.20;99.90;;;;;;5108684;28;20512;-65
2021/03/03 03:01:08;;;;;;;21.45;15.23;;;3.30;99.90;;;;;;5113404;28;20048;-65
2021/03/03 03:03:40;;;;;;;25.27;16.38;;;3.30;99.90;;;;;;5112303;28;20036;-65
2021/03/03 03:06:08;;;;;;;24.25;15.25;;;3.20;99.90;;;;;;5114026;28;20040;-65
2021/03/03 03:08:35;;;;;;;27.27;19.08;;;3.30;99.90;;;;;;5113195;28;20039;-65
2021/03/03 03:11:07;;;;;;;27.40;18.13;;;3.20;99.90;;;;;;5113178;28;20043;-65
2021/03/03 03:13:36;;;;;;;20.02;14.35;;;3.00;99.90;;;;;;5112937;28;20077;-65
2021/03/03 03:16:06;;;;;;;15.18;11.35;;;3.10;99.90;;;;;;5107408;28;20063;-65
2021/03/03 03:18:41;;;;;;;18.63;13.52;;;3.00;99.90;;;;;;5111572;28;20031;-65
2021/03/03 03:21:08;;;;;;;16.77;13.68;;;3.10;99.90;;;;;;5113175;28;20538;-65
2021/03/03 03:23:36;;;;;;;20.40;14.75;;;3.00;99.90;;;;;;5112252;28;20042;-65
2021/03/03 03:26:03;;;;;;;11.32;9.60;;;2.90;99.90;;;;;;5111465;28;20085;-65
2021/03/03 03:28:30;;;;;;;14.15;11.48;;;3.00;99.90;;;;;;5112229;28;20039;-65
2021/03/03 03:30:56;;;;;;;17.90;12.07;;;3.00;99.90;;;;;;5107142;28;20031;-65
2021/03/03 03:33:22;;;;;;;20.20;12.90;;;3.00;99.90;;;;;;5111790;28;20043;-65
2021/03/03 03:35:48;;;;;;;18.38;13.00;;;3.10;99.90;;;;;;5111839;28;20137;-65
2021/03/03 03:38:15;;;;;;;17.20;13.32;;;3.10;99.90;;;;;;5112445;28;20116;-65
2021/03/03 03:40:41;;;;;;;20.52;14.82;;;3.10;99.90;;;;;;5111854;28;20994;-65
2021/03/03 03:43:10;;;;;;;16.65;12.75;;;3.10;99.90;;;;;;5112023;28;20047;-65
2021/03/03 03:45:37;;;;;;;12.65;10.13;;;3.10;99.90;;;;;;5111949;28;20109;-65
2021/03/03 03:48:04;;;;;;;17.77;12.52;;;3.00;99.90;;;;;;5111571;28;20481;-65
2021/03/03 03:50:30;;;;;;;14.48;10.07;;;3.00;99.90;;;;;;5092004;28;20426;-65
2021/03/03 03:52:57;;;;;;;15.13;10.63;;;3.00;99.90;;;;;;5092173;28;20424;-65
2021/03/03 03:55:36;;;;;;;21.75;12.50;;;3.00;99.90;;;;;;5111894;28;20032;-65
2021/03/03 03:58:03;;;;;;;12.80;9.52;;;3.00;99.90;;;;;;5110111;28;20047;-65
2021/03/03 04:00:30;;;;;;;14.07;10.32;;;3.00;99.90;;;;;;5112554;28;20036;-65
2021/03/03 04:02:56;;;;;;;17.73;11.95;;;3.00;99.90;;;;;;5111769;28;20036;-65
2021/03/03 04:05:23;;;;;;;15.05;11.02;;;3.00;99.90;;;;;;5112033;28;20146;-65
2021/03/03 04:07:49;;;;;;;14.80;10.88;;;2.80;99.90;;;;;;5111683;28;20043;-65
2021/03/03 04:10:19;;;;;;;12.95;10.77;;;2.70;99.90;;;;;;5112258;28;20047;-65
2021/03/03 04:12:44;;;;;;;13.35;10.25;;;2.80;99.90;;;;;;5111086;28;20494;-65
2021/03/03 04:15:11;;;;;;;13.63;10.68;;;2.90;99.90;;;;;;5111365;28;20100;-65
2021/03/03 04:17:37;;;;;;;13.48;9.95;;;2.70;99.90;;;;;;5111195;28;20694;-65
2021/03/03 04:20:06;;;;;;;15.00;11.93;;;2.70;99.90;;;;;;5111540;28;22326;-65
2021/03/03 04:22:32;;;;;;;15.68;10.80;;;2.70;99.90;;;;;;5110994;28;20513;-65
2021/03/03 04:24:59;;;;;;;24.67;14.63;;;2.70;99.90;;;;;;5111736;28;20035;-65
2021/03/03 04:27:25;;;;;;;11.68;9.55;;;2.70;99.90;;;;;;5111335;28;20065;-65
2021/03/03 04:29:50;;;;;;;14.25;9.68;;;2.80;99.90;;;;;;5111289;28;20032;-65
2021/03/03 04:32:16;;;;;;;15.50;11.95;;;2.80;99.90;;;;;;5108944;28;20042;-65
2021/03/03 04:34:42;;;;;;;14.98;12.40;;;2.80;99.90;;;;;;5111618;28;20067;-65
2021/03/03 04:37:07;;;;;;;19.17;12.20;;;2.80;99.90;;;;;;5108872;28;20480;-65
2021/03/03 04:39:33;;;;;;;16.15;11.70;;;2.80;99.90;;;;;;5110772;28;20053;-65
2021/03/03 04:41:59;;;;;;;17.00;12.52;;;2.90;99.90;;;;;;5110714;28;20485;-65
2021/03/03 04:44:24;;;;;;;18.73;13.20;;;3.10;99.90;;;;;;5110965;28;20108;-65
2021/03/03 04:46:50;;;;;;;16.15;12.60;;;3.00;99.90;;;;;;5111131;28;20073;-65
2021/03/03 04:49:16;;;;;;;15.05;11.38;;;3.00;99.90;;;;;;5107192;28;20474;-65
2021/03/03 04:51:42;;;;;;;12.20;9.73;;;3.00;99.90;;;;;;5109842;28;20036;-65
2021/03/03 04:54:08;;;;;;;15.00;12.20;;;3.00;99.90;;;;;;5110403;28;20497;-65
2021/03/03 04:56:33;;;;;;;15.45;11.77;;;3.10;99.90;;;;;;5091089;28;20531;-65
2021/03/03 04:58:59;;;;;;;18.80;12.13;;;3.00;99.90;;;;;;5110102;28;20398;-65
2021/03/03 05:01:24;;;;;;;16.00;11.10;;;3.10;99.90;;;;;;5111050;28;20027;-65
2021/03/03 05:03:50;;;;;;;13.95;10.00;;;3.00;99.90;;;;;;5110944;28;20039;-65
2021/03/03 05:06:16;;;;;;;16.33;12.38;;;3.00;99.90;;;;;;5109641;28;20036;-65
2021/03/03 05:08:41;;;;;;;19.42;11.50;;;3.00;99.90;;;;;;5110831;28;20042;-65
2021/03/03 05:11:07;;;;;;;15.57;12.27;;;3.00;99.90;;;;;;5111022;28;20042;-65
2021/03/03 05:13:33;;;;;;;18.35;13.52;;;3.00;99.90;;;;;;5109991;28;20035;-65
2021/03/03 05:15:59;;;;;;;13.23;10.10;;;2.90;99.90;;;;;;5111304;28;20039;-65
2021/03/03 05:18:25;;;;;;;16.95;10.38;;;2.90;99.90;;;;;;5108875;28;20397;-65
2021/03/03 05:20:51;;;;;;;19.33;11.00;;;3.00;99.90;;;;;;5107169;28;20031;-65
2021/03/03 05:23:34;;;;;;;14.80;11.27;;;3.00;99.90;;;;;;5109657;28;20036;-65
2021/03/03 05:26:03;;;;;;;17.83;12.93;;;3.00;99.90;;;;;;5100992;28;20061;-65
2021/03/03 05:28:29;;;;;;;18.30;14.93;;;3.00;99.90;;;;;;5101680;28;20040;-65
2021/03/03 05:30:55;;;;;;;18.67;13.48;;;3.00;99.90;;;;;;5103839;28;20107;-65
2021/03/03 05:33:23;;;;;;;23.05;15.38;;;3.10;99.90;;;;;;5101234;28;20527;-65
2021/03/03 05:35:50;;;;;;;23.48;17.88;;;3.10;99.90;;;;;;5102471;28;20036;-65
2021/03/03 05:38:15;;;;;;;27.08;17.67;;;3.10;99.90;;;;;;5083635;28;20036;-65
2021/03/03 05:40:43;;;;;;;24.63;16.90;;;3.20;99.90;;;;;;5103059;28;20044;-65
2021/03/03 05:43:09;;;;;;;23.77;16.80;;;3.20;99.90;;;;;;5108143;28;20038;-65
2021/03/03 05:45:36;;;;;;;28.38;19.15;;;3.20;99.90;;;;;;5108962;28;20040;-65
2021/03/03 05:48:04;;;;;;;34.22;18.58;;;3.20;99.90;;;;;;5110034;28;20055;-65
2021/03/03 05:50:34;;;;;;;30.00;19.75;;;3.20;99.90;;;;;;5110317;28;20050;-65
2021/03/03 05:53:00;;;;;;;29.55;18.58;;;3.20;99.90;;;;;;5108743;28;20044;-65
2021/03/03 05:55:30;;;;;;;29.00;17.70;;;3.20;99.90;;;;;;5106565;28;20035;-65
2021/03/03 05:57:56;;;;;;;27.40;19.35;;;3.30;99.90;;;;;;5107134;28;20474;-65
2021/03/03 06:00:22;;;;;;;29.17;20.02;;;3.30;99.90;;;;;;5106074;28;20032;-65
2021/03/03 06:02:49;;;;;;;30.17;19.65;;;3.20;99.90;;;;;;5103536;28;20454;-65
2021/03/03 06:05:15;;;;;;;35.35;21.10;;;3.30;99.90;;;;;;5107725;28;20486;-65
2021/03/03 06:07:41;;;;;;;30.33;19.98;;;3.30;99.90;;;;;;5109447;28;20035;-65
2021/03/03 06:10:07;;;;;;;24.45;18.05;;;3.30;99.90;;;;;;5109639;28;20038;-65
2021/03/03 06:12:35;;;;;;;30.05;18.08;;;3.20;99.90;;;;;;5106997;28;20043;-65
2021/03/03 06:15:02;;;;;;;16.80;13.07;;;3.40;99.90;;;;;;5104895;28;20040;-65
2021/03/03 06:17:29;;;;;;;18.70;13.35;;;3.10;99.90;;;;;;5111450;28;20070;-65
2021/03/03 06:19:57;;;;;;;23.95;16.60;;;3.10;99.90;;;;;;5100528;28;20056;-65
2021/03/03 06:22:25;;;;;;;25.60;16.42;;;3.10;99.90;;;;;;5110063;28;20059;-65
2021/03/03 06:24:53;;;;;;;28.13;19.00;;;3.10;99.90;;;;;;5112420;28;20059;-65
2021/03/03 06:27:21;;;;;;;24.65;17.05;;;3.10;99.90;;;;;;5112918;28;20062;-65
2021/03/03 06:30:13;;;;;;;25.90;18.40;;;3.30;99.90;;;;;;5112106;28;20048;-65
2021/03/03 06:33:06;;;;;;;27.15;19.20;;;3.10;99.90;;;;;;5115950;27;20045;-65
2021/03/03 06:35:43;;;;;;;28.85;19.35;;;3.20;99.90;;;;;;5093871;28;20043;-65
2021/03/03 06:38:13;;;;;;;32.15;20.50;;;3.80;99.90;;;;;;5112766;28;20048;-65
2021/03/03 06:40:54;;;;;;;32.10;20.73;;;3.30;99.90;;;;;;5112467;28;20061;-65
2021/03/03 06:43:23;;;;;;;32.67;19.92;;;3.30;99.90;;;;;;5110066;28;20036;-65
2021/03/03 06:45:50;;;;;;;35.38;18.25;;;3.40;99.90;;;;;;5110365;28;20032;-65
2021/03/03 06:48:38;;;;;;;33.38;19.25;;;3.40;99.90;;;;;;5111117;28;20114;-65
2021/03/03 06:51:31;;;;;;;25.85;16.92;;;3.40;99.90;;;;;;5107254;28;20060;-65
2021/03/03 06:53:59;;;;;;;22.73;16.15;;;3.50;99.90;;;;;;5087297;28;20044;-65
2021/03/03 06:56:41;;;;;;;16.25;12.90;;;3.50;99.90;;;;;;5110959;28;20043;-65
2021/03/03 06:59:23;;;;;;;20.30;13.82;;;3.50;99.90;;;;;;5113196;28;20047;-65
2021/03/03 07:01:54;;;;;;;22.92;15.52;;;3.40;99.90;;;;;;5110676;28;20070;-65
2021/03/03 07:04:27;;;;;;;22.85;16.48;;;3.50;99.90;;;;;;5109959;28;20032;-65
2021/03/03 07:06:54;;;;;;;20.63;11.93;;;3.30;99.90;;;;;;5111240;28;20545;-66
2021/03/03 07:09:22;;;;;;;49.80;15.52;;;3.40;99.90;;;;;;5113614;28;20401;-66
2021/03/03 07:11:48;;;;;;;31.40;16.83;;;3.40;99.90;;;;;;5110936;28;20115;-66
2021/03/03 07:14:20;;;;;;;29.02;19.48;;;3.40;99.90;;;;;;5112288;28;20039;-66
2021/03/03 07:17:06;;;;;;;37.72;23.75;;;3.50;99.90;;;;;;5108924;28;20048;-66
2021/03/03 07:19:33;;;;;;;37.78;22.42;;;3.60;99.90;;;;;;5111839;28;20229;-66
2021/03/03 07:21:59;;;;;;;34.65;24.33;;;3.70;99.90;;;;;;5111112;28;20039;-66
2021/03/03 07:24:26;;;;;;;34.88;20.50;;;3.80;99.90;;;;;;5109646;28;20450;-66
2021/03/03 07:26:52;;;;;;;41.00;24.67;;;3.80;99.90;;;;;;5109429;28;20137;-66
2021/03/03 07:29:18;;;;;;;35.28;23.20;;;4.00;99.90;;;;;;5107080;28;20478;-66
2021/03/03 07:31:45;;;;;;;36.92;23.95;;;4.00;99.90;;;;;;5112544;28;20039;-65
2021/03/03 07:34:11;;;;;;;39.70;24.13;;;4.10;99.90;;;;;;5112510;28;20031;-66
2021/03/03 07:36:39;;;;;;;39.92;23.42;;;4.20;99.90;;;;;;5110324;28;20040;-65
2021/03/03 07:39:08;;;;;;;37.88;23.85;;;4.30;99.90;;;;;;5106885;28;20062;-65
2021/03/03 07:41:42;;;;;;;35.60;22.27;;;4.30;99.90;;;;;;5108288;28;20068;-66
2021/03/03 07:44:13;;;;;;;32.60;23.83;;;4.40;99.90;;;;;;5108548;28;20047;-66
2021/03/03 07:46:41;;;;;;;42.25;23.27;;;4.40;99.90;;;;;;5109363;28;20047;-65
2021/03/03 07:49:11;;;;;;;32.97;22.25;;;4.40;99.90;;;;;;5106131;28;20066;-66
2021/03/03 07:51:40;;;;;;;36.67;23.50;;;4.40;99.90;;;;;;5110516;28;20046;-65
2021/03/03 07:54:12;;;;;;;37.03;24.00;;;4.40;99.90;;;;;;5110859;28;20474;-66
2021/03/03 07:56:39;;;;;;;35.58;24.65;;;4.50;99.90;;;;;;5111343;28;20112;-66
2021/03/03 07:59:10;;;;;;;40.15;25.52;;;4.50;99.90;;;;;;5103812;28;20036;-66
2021/03/03 08:01:36;;;;;;;33.55;23.38;;;4.50;99.90;;;;;;5109886;28;20121;-66
2021/03/03 08:04:03;;;;;;;37.97;24.15;;;4.60;99.90;;;;;;5112093;28;20050;-66
2021/03/03 08:06:39;;;;;;;37.08;24.02;;;4.70;99.90;;;;;;5085653;28;20122;-65
2021/03/03 08:09:05;;;;;;;38.25;24.63;;;4.70;99.90;;;;;;5110801;28;20039;-65
2021/03/03 08:11:34;;;;;;;33.47;23.48;;;4.80;99.90;;;;;;5109195;28;20031;-66
2021/03/03 08:14:29;;;;;;;37.08;23.92;;;4.80;99.90;;;;;;5111031;28;20043;-65
2021/03/03 08:16:57;;;;;;;39.75;24.75;;;4.90;99.90;;;;;;5106068;28;20055;-66
2021/03/03 08:20:01;;;;;;;39.60;26.50;;;4.90;99.90;;;;;;5110186;28;20035;-66
2021/03/03 08:22:52;;;;;;;38.33;26.92;;;5.00;99.90;;;;;;5106409;28;20039;-66
2021/03/03 08:25:41;;;;;;;43.85;26.92;;;5.10;99.90;;;;;;5105969;28;20040;-66
2021/03/03 08:28:32;;;;;;;49.35;27.52;;;5.20;99.90;;;;;;5105984;28;20035;-66
2021/03/03 08:31:13;;;;;;;44.30;28.20;;;5.30;99.90;;;;;;5109924;28;20035;-66
2021/03/03 08:33:49;;;;;;;38.33;27.48;;;5.30;99.90;;;;;;5109026;28;20047;-66
2021/03/03 08:36:21;;;;;;;53.33;29.83;;;5.50;99.90;;;;;;5108940;28;20156;-66
2021/03/03 08:39:09;;;;;;;49.17;29.38;;;5.60;99.90;;;;;;5098458;28;20076;-66
2021/03/03 08:41:36;;;;;;;44.08;28.20;;;5.70;99.90;;;;;;5091241;28;20043;-66
2021/03/03 08:44:11;;;;;;;50.30;29.90;;;5.70;99.90;;;;;;5102909;28;20039;-66
2021/03/03 08:46:48;;;;;;;46.33;29.80;;;5.80;99.90;;;;;;5102427;28;20087;-66
2021/03/03 08:49:14;;;;;;;44.58;28.45;;;5.90;99.90;;;;;;5085270;28;20043;-66
2021/03/03 08:51:47;;;;;;;43.40;29.35;;;6.00;99.90;;;;;;5108548;28;20508;-66
2021/03/03 08:54:18;;;;;;;47.45;31.15;;;6.20;99.90;;;;;;5108357;28;20066;-66
2021/03/03 08:56:44;;;;;;;44.78;29.63;;;6.30;99.90;;;;;;5105503;28;20046;-66
2021/03/03 08:59:14;;;;;;;42.97;29.27;;;6.40;99.90;;;;;;5108590;28;20533;-66
2021/03/03 09:02:01;;;;;;;38.05;28.38;;;6.50;99.90;;;;;;5106490;28;20039;-66
2021/03/03 09:04:33;;;;;;;46.03;29.20;;;6.70;99.90;;;;;;5110275;28;20039;-66
2021/03/03 09:07:05;;;;;;;43.97;28.63;;;6.80;99.90;;;;;;5110116;28;20031;-66
2021/03/03 09:09:37;;;;;;;37.20;28.50;;;7.00;99.90;;;;;;5109661;28;20039;-66
2021/03/03 09:12:07;;;;;;;39.55;29.00;;;7.10;99.90;;;;;;5107754;28;20040;-66
2021/03/03 09:14:35;;;;;;;39.80;29.00;;;7.30;99.90;;;;;;5107632;28;20085;-66
2021/03/03 09:17:03;;;;;;;37.63;26.75;;;7.50;99.90;;;;;;5108768;28;20053;-66
2021/03/03 09:19:31;;;;;;;42.50;28.05;;;7.60;99.90;;;;;;5109232;28;20032;-66
2021/03/03 09:21:58;;;;;;;39.95;28.00;;;7.70;99.90;;;;;;5105676;28;20047;-66
2021/03/03 09:24:24;;;;;;;42.90;29.20;;;7.80;99.90;;;;;;5104115;28;20051;-66
2021/03/03 09:27:04;;;;;;;39.30;28.23;;;7.90;99.90;;;;;;5109788;28;20550;-66
2021/03/03 09:29:31;;;;;;;39.20;29.25;;;8.00;99.90;;;;;;5089866;28;20130;-66
2021/03/03 09:32:03;;;;;;;39.05;28.73;;;8.10;99.90;;;;;;5104081;28;20094;-66
2021/03/03 09:34:29;;;;;;;37.60;28.20;;;8.20;99.60;;;;;;5109030;28;20096;-66
2021/03/03 09:37:00;;;;;;;40.65;28.80;;;8.30;99.50;;;;;;5109957;28;20502;-66
2021/03/03 09:39:26;;;;;;;37.53;28.08;;;8.40;99.30;;;;;;5112180;28;20071;-66
2021/03/03 09:42:06;;;;;;;38.67;29.60;;;8.40;99.40;;;;;;5095017;28;20497;-66
2021/03/03 09:44:45;;;;;;;37.53;29.33;;;8.50;99.70;;;;;;5111767;28;20047;-66
2021/03/03 09:47:12;;;;;;;36.40;29.08;;;8.60;99.60;;;;;;5112019;28;20066;-66
2021/03/03 09:49:38;;;;;;;40.45;28.55;;;8.70;99.80;;;;;;5110834;28;20120;-66
2021/03/03 09:52:06;;;;;;;38.15;29.45;;;8.80;99.80;;;;;;5107992;28;20051;-67
2021/03/03 09:54:35;;;;;;;37.78;29.52;;;9.00;99.50;;;;;;5113354;28;20054;-66
2021/03/03 09:57:11;;;;;;;41.80;29.38;;;9.10;99.20;;;;;;5109146;28;20043;-66
2021/03/03 09:59:43;;;;;;;37.00;30.15;;;9.10;99.10;;;;;;5092238;28;20055;-66
2021/03/03 10:02:11;;;;;;;44.55;30.58;;;9.30;98.90;;;;;;5110511;28;20032;-66
2021/03/03 10:04:39;;;;;;;43.00;30.58;;;9.30;98.50;;;;;;5113407;28;20047;-66
2021/03/03 10:07:18;;;;;;;38.45;30.77;;;9.30;98.30;;;;;;5110451;28;20059;-66
2021/03/03 10:09:45;;;;;;;43.95;32.15;;;9.40;98.60;;;;;;5112205;28;20043;-66
2021/03/03 10:12:14;;;;;;;40.63;31.10;;;9.40;98.60;;;;;;5109405;28;20040;-66
2021/03/03 10:14:55;;;;;;;36.42;30.80;;;9.40;98.40;;;;;;5113845;28;20035;-66
2021/03/03 10:17:36;;;;;;;39.88;31.67;;;9.40;98.10;;;;;;5112110;28;20046;-66
2021/03/03 10:20:05;;;;;;;35.33;29.85;;;9.50;98.10;;;;;;5107883;28;20497;-66
2021/03/03 10:22:31;;;;;;;38.00;30.48;;;9.40;98.00;;;;;;5113281;28;20046;-66
2021/03/03 10:25:04;;;;;;;44.13;30.92;;;9.40;98.30;;;;;;5112041;28;20358;-66
2021/03/03 10:27:41;;;;;;;39.60;29.52;;;9.50;98.10;;;;;;5111258;28;20111;-66
2021/03/03 10:30:27;;;;;;;40.20;30.02;;;9.30;97.80;;;;;;5108132;28;20054;-66
2021/03/03 10:32:53;;;;;;;44.30;31.35;;;9.30;97.80;;;;;;5110304;28;20040;-66
2021/03/03 10:35:21;;;;;;;40.95;32.13;;;9.30;97.90;;;;;;5108354;28;20043;-66
2021/03/03 10:37:47;;;;;;;40.95;31.15;;;9.20;98.10;;;;;;5107619;28;20040;-66
2021/03/03 10:40:15;;;;;;;44.92;33.08;;;9.20;98.10;;;;;;5110533;28;20031;-66
2021/03/03 10:42:42;;;;;;;41.22;31.08;;;9.20;98.30;;;;;;5102540;28;20118;-66
2021/03/03 10:45:24;;;;;;;45.97;33.92;;;9.10;98.40;;;;;;5109777;28;20047;-66
2021/03/03 10:47:51;;;;;;;39.25;31.83;;;9.10;98.70;;;;;;5111448;28;20047;-66
2021/03/03 10:50:18;;;;;;;42.25;31.70;;;9.20;98.60;;;;;;5108062;28;20035;-66
2021/03/03 10:53:00;;;;;;;47.50;33.83;;;9.30;99.00;;;;;;5109882;28;20393;-66
2021/03/03 10:55:32;;;;;;;34.88;29.77;;;9.30;99.00;;;;;;5108312;28;21073;-66
2021/03/03 10:58:06;;;;;;;33.53;28.83;;;9.40;98.90;;;;;;5109510;28;20113;-67
2021/03/03 11:00:53;;;;;;;32.70;26.40;;;9.30;98.50;;;;;;5110538;28;20046;-66
2021/03/03 11:03:19;;;;;;;36.40;29.05;;;9.40;98.60;;;;;;5115806;27;20486;-66
2021/03/03 11:05:50;;;;;;;32.80;27.17;;;9.30;98.30;;;;;;5112686;28;20102;-66
2021/03/03 11:08:15;;;;;;;29.73;25.70;;;9.30;98.30;;;;;;5110777;28;20092;-66
2021/03/03 11:10:41;;;;;;;30.30;25.83;;;9.30;98.20;;;;;;5104518;28;21063;-66
2021/03/03 11:13:07;;;;;;;29.48;26.30;;;9.20;98.20;;;;;;5102158;28;20032;-66
2021/03/03 11:15:33;;;;;;;28.85;24.88;;;9.30;97.90;;;;;;5105750;28;20032;-66
2021/03/03 11:17:58;;;;;;;28.20;24.95;;;9.30;97.80;;;;;;5100563;28;20494;-66
2021/03/03 11:20:24;;;;;;;30.80;25.80;;;9.20;97.70;;;;;;5100187;28;20111;-66
2021/03/03 11:22:50;;;;;;;26.42;23.63;;;9.20;97.40;;;;;;5102357;28;20059;-67
2021/03/03 11:25:15;;;;;;;27.20;23.27;;;9.20;97.90;;;;;;5103874;28;20042;-66
2021/03/03 11:27:41;;;;;;;26.50;23.13;;;9.30;97.70;;;;;;5101919;28;20268;-66
2021/03/03 11:30:07;;;;;;;23.75;21.20;;;9.20;97.20;;;;;;5102697;28;20038;-66
2021/03/03 11:32:33;;;;;;;24.83;22.08;;;9.20;97.40;;;;;;5100989;28;20035;-66
2021/03/03 11:34:59;;;;;;;25.73;21.08;;;9.10;96.90;;;;;;5101839;28;20555;-66
2021/03/03 11:37:24;;;;;;;25.92;23.08;;;9.00;97.00;;;;;;5103571;28;20420;-66
2021/03/03 11:39:53;;;;;;;24.55;22.02;;;9.00;97.50;;;;;;5100682;28;20498;-66
2021/03/03 11:42:19;;;;;;;34.30;23.27;;;8.90;97.60;;;;;;5105245;27;20028;-66
2021/03/03 11:44:45;;;;;;;23.08;20.52;;;8.90;97.40;;;;;;5106524;27;20043;-66
2021/03/03 11:47:10;;;;;;;24.85;21.92;;;8.80;97.20;;;;;;5108598;27;20040;-66
2021/03/03 11:49:36;;;;;;;24.42;21.83;;;8.80;97.30;;;;;;5088810;28;20047;-66
2021/03/03 11:52:03;;;;;;;27.05;24.15;;;8.70;97.20;;;;;;5110991;28;20048;-66
2021/03/03 11:54:28;;;;;;;25.40;22.75;;;8.50;97.30;;;;;;5108039;27;20039;-66
2021/03/03 11:56:54;;;;;;;24.85;22.23;;;8.50;97.30;;;;;;5109501;28;20062;-66
2021/03/03 11:59:19;;;;;;;27.70;24.52;;;8.50;97.50;;;;;;5103947;27;20051;-66
2021/03/03 12:01:45;;;;;;;30.25;26.10;;;8.50;97.40;;;;;;5105071;28;20110;-66
2021/03/03 12:04:11;;;;;;;29.63;25.63;;;8.50;97.90;;;;;;5103310;28;20472;-66
2021/03/03 12:06:36;;;;;;;28.38;25.30;;;8.70;98.20;;;;;;5106225;28;20032;-66
2021/03/03 12:09:02;;;;;;;29.30;26.15;;;9.00;98.30;;;;;;5085665;28;20047;-66
2021/03/03 12:11:28;;;;;;;31.75;27.08;;;9.10;97.40;;;;;;5104716;27;20070;-67
2021/03/03 12:13:54;;;;;;;30.70;25.65;;;8.90;96.60;;;;;;5107734;27;20063;-67
2021/03/03 12:16:19;;;;;;;31.95;25.45;;;9.00;96.90;;;;;;5105259;27;20039;-67
2021/03/03 12:18:45;;;;;;;29.50;26.40;;;9.00;96.80;;;;;;5100980;28;20107;-67
2021/03/03 12:21:12;;;;;;;31.50;26.40;;;9.10;97.00;;;;;;5106584;27;20474;-67
2021/03/03 12:23:37;;;;;;;29.17;26.02;;;9.10;96.80;;;;;;5106514;28;20027;-66
2021/03/03 12:26:03;;;;;;;32.15;27.42;;;9.20;96.70;;;;;;5106086;27;20062;-67
2021/03/03 12:28:29;;;;;;;32.20;25.23;;;9.30;97.00;;;;;;5105622;28;20050;-67
2021/03/03 12:30:54;;;;;;;30.30;26.98;;;9.40;96.70;;;;;;5102503;27;20028;-67
2021/03/03 12:33:20;;;;;;;35.28;25.17;;;9.60;96.60;;;;;;5108604;27;20031;-67
2021/03/03 12:35:46;;;;;;;27.92;24.50;;;9.80;96.00;;;;;;5087968;27;20486;-67
2021/03/03 12:38:11;;;;;;;28.83;25.33;;;10.00;95.60;;;;;;5101209;28;20560;-67
2021/03/03 12:40:37;;;;;;;28.70;24.67;;;10.20;95.50;;;;;;5099593;28;20039;-67
2021/03/03 12:43:03;;;;;;;30.63;24.80;;;10.30;95.00;;;;;;5101068;28;20036;-67
2021/03/03 12:45:28;;;;;;;29.13;24.45;;;10.40;94.60;;;;;;5106111;28;20040;-67
2021/03/03 12:47:55;;;;;;;29.23;24.50;;;10.50;94.70;;;;;;5107247;28;20518;-67